sensor_id;sensor_type;location;lat;lon;timestamp;P1;durP1;ratioP1;P2;durP2;ratioP2
80987;SDS011;70452;39.386;-3.210;2023-10-13T00:01:22;6.53;;;1.52;;
80987;SDS011;70452;39.386;-3.210;2023-10-13T00:03:51;8.98;;;1.40;;
80987;SDS011;70452;39.386;-3.210;2023-10-13T00:06:22;6.00;;;1.67;;
80987;SDS011;70452;39.386;-3.210;2023-10-13T00:08:56;7.88;;;1.90;;
80987;SDS011;70452;39.386;-3.210;2023-10-13T00:11:29;7.25;;;1.45;;
80987;SDS011;70452;39.386;-3.210;2023-10-13T00:14:07;7.32;;;1.42;;
80987;SDS011;70452;39.386;-3.210;2023-10-13T00:16:45;11.18;;;1.80;;
80987;SDS011;70452;39.386;-3.210;2023-10-13T00:19:32;6.32;;;1.48;;
80987;SDS011;70452;39.386;-3.210;2023-10-13T00:22:14;8.05;;;1.58;;
80987;SDS011;70452;39.386;-3.210;2023-10-13T00:24:46;5.53;;;1.48;;
80987;SDS011;70452;39.386;-3.210;2023-10-13T00:27:19;6.50;;;1.40;;
80987;SDS011;70452;39.386;-3.210;2023-10-13T00:30:05;6.65;;;1.52;;
80987;SDS011;70452;39.386;-3.210;2023-10-13T00:32:49;6.45;;;1.00;;
80987;SDS011;70452;39.386;-3.210;2023-10-13T00:35:25;6.55;;;1.33;;
80987;SDS011;70452;39.386;-3.210;2023-10-13T00:38:11;6.95;;;1.05;;
80987;SDS011;70452;39.386;-3.210;2023-10-13T00:40:51;6.32;;;1.15;;
80987;SDS011;70452;39.386;-3.210;2023-10-13T00:43:22;11.23;;;2.50;;
80987;SDS011;70452;39.386;-3.210;2023-10-13T00:45:57;6.95;;;1.38;;
80987;SDS011;70452;39.386;-3.210;2023-10-13T00:48:34;6.80;;;1.73;;
80987;SDS011;70452;39.386;-3.210;2023-10-13T00:51:43;10.10;;;0.90;;
80987;SDS011;70452;39.386;-3.210;2023-10-13T00:54:15;8.93;;;1.52;;
80987;SDS011;70452;39.386;-3.210;2023-10-13T00:57:02;7.97;;;1.40;;
80987;SDS011;70452;39.386;-3.210;2023-10-13T00:59:51;7.28;;;1.90;;
80987;SDS011;70452;39.386;-3.210;2023-10-13T01:02:41;6.70;;;1.73;;
80987;SDS011;70452;39.386;-3.210;2023-10-13T01:05:21;10.07;;;1.90;;
80987;SDS011;70452;39.386;-3.210;2023-10-13T01:07:53;8.45;;;1.73;;
80987;SDS011;70452;39.386;-3.210;2023-10-13T01:10:36;5.28;;;1.00;;
80987;SDS011;70452;39.386;-3.210;2023-10-13T01:13:18;6.25;;;1.50;;
80987;SDS011;70452;39.386;-3.210;2023-10-13T01:15:51;10.20;;;1.63;;
80987;SDS011;70452;39.386;-3.210;2023-10-13T01:18:30;7.72;;;1.58;;
80987;SDS011;70452;39.386;-3.210;2023-10-13T01:20:56;7.57;;;1.63;;
80987;SDS011;70452;39.386;-3.210;2023-10-13T01:23:37;6.47;;;1.42;;
80987;SDS011;70452;39.386;-3.210;2023-10-13T01:26:19;7.70;;;1.52;;
80987;SDS011;70452;39.386;-3.210;2023-10-13T01:28:56;6.85;;;1.35;;
80987;SDS011;70452;39.386;-3.210;2023-10-13T01:31:28;7.72;;;1.50;;
80987;SDS011;70452;39.386;-3.210;2023-10-13T01:34:02;8.00;;;1.92;;
80987;SDS011;70452;39.386;-3.210;2023-10-13T01:36:37;9.82;;;1.65;;
80987;SDS011;70452;39.386;-3.210;2023-10-13T01:39:07;6.38;;;1.20;;
80987;SDS011;70452;39.386;-3.210;2023-10-13T01:41:54;7.80;;;1.35;;
80987;SDS011;70452;39.386;-3.210;2023-10-13T01:44:29;8.23;;;1.25;;
80987;SDS011;70452;39.386;-3.210;2023-10-13T01:47:07;8.27;;;1.73;;
80987;SDS011;70452;39.386;-3.210;2023-10-13T01:49:44;6.20;;;1.80;;
80987;SDS011;70452;39.386;-3.210;2023-10-13T01:52:18;5.55;;;1.50;;
80987;SDS011;70452;39.386;-3.210;2023-10-13T01:54:54;7.75;;;2.55;;
80987;SDS011;70452;39.386;-3.210;2023-10-13T01:57:22;7.38;;;1.73;;
80987;SDS011;70452;39.386;-3.210;2023-10-13T01:59:53;7.68;;;1.70;;
80987;SDS011;70452;39.386;-3.210;2023-10-13T02:02:25;7.30;;;1.90;;
80987;SDS011;70452;39.386;-3.210;2023-10-13T02:05:04;6.65;;;1.83;;
80987;SDS011;70452;39.386;-3.210;2023-10-13T02:07:59;8.13;;;2.22;;
80987;SDS011;70452;39.386;-3.210;2023-10-13T02:10:35;10.18;;;1.92;;
80987;SDS011;70452;39.386;-3.210;2023-10-13T02:13:11;8.18;;;2.40;;
80987;SDS011;70452;39.386;-3.210;2023-10-13T02:15:42;6.95;;;1.90;;
80987;SDS011;70452;39.386;-3.210;2023-10-13T02:18:19;7.72;;;2.25;;
80987;SDS011;70452;39.386;-3.210;2023-10-13T02:21:02;9.45;;;2.28;;
80987;SDS011;70452;39.386;-3.210;2023-10-13T02:23:44;6.38;;;2.17;;
80987;SDS011;70452;39.386;-3.210;2023-10-13T02:26:36;8.52;;;2.58;;
80987;SDS011;70452;39.386;-3.210;2023-10-13T02:29:09;8.10;;;2.17;;
80987;SDS011;70452;39.386;-3.210;2023-10-13T02:31:52;7.93;;;1.88;;
80987;SDS011;70452;39.386;-3.210;2023-10-13T02:34:25;7.20;;;2.00;;
80987;SDS011;70452;39.386;-3.210;2023-10-13T02:37:11;9.30;;;2.17;;
80987;SDS011;70452;39.386;-3.210;2023-10-13T02:39:50;8.90;;;2.20;;
80987;SDS011;70452;39.386;-3.210;2023-10-13T02:42:23;7.47;;;2.90;;
80987;SDS011;70452;39.386;-3.210;2023-10-13T02:44:49;7.53;;;2.15;;
80987;SDS011;70452;39.386;-3.210;2023-10-13T02:47:38;10.20;;;2.20;;
80987;SDS011;70452;39.386;-3.210;2023-10-13T02:50:09;8.85;;;2.67;;
80987;SDS011;70452;39.386;-3.210;2023-10-13T02:52:38;8.40;;;2.65;;
80987;SDS011;70452;39.386;-3.210;2023-10-13T02:55:23;8.27;;;2.60;;
80987;SDS011;70452;39.386;-3.210;2023-10-13T02:57:57;8.65;;;2.50;;
80987;SDS011;70452;39.386;-3.210;2023-10-13T03:00:32;9.32;;;2.72;;
80987;SDS011;70452;39.386;-3.210;2023-10-13T03:03:12;8.25;;;2.67;;
80987;SDS011;70452;39.386;-3.210;2023-10-13T03:05:53;8.43;;;2.65;;
80987;SDS011;70452;39.386;-3.210;2023-10-13T03:08:26;11.32;;;3.33;;
80987;SDS011;70452;39.386;-3.210;2023-10-13T03:11:02;11.93;;;3.70;;
80987;SDS011;70452;39.386;-3.210;2023-10-13T03:13:36;9.25;;;2.97;;
80987;SDS011;70452;39.386;-3.210;2023-10-13T03:16:28;8.25;;;2.95;;
80987;SDS011;70452;39.386;-3.210;2023-10-13T03:19:11;11.77;;;3.33;;
80987;SDS011;70452;39.386;-3.210;2023-10-13T03:21:46;9.23;;;3.28;;
80987;SDS011;70452;39.386;-3.210;2023-10-13T03:24:22;11.75;;;3.45;;
80987;SDS011;70452;39.386;-3.210;2023-10-13T03:27:16;8.93;;;3.35;;
80987;SDS011;70452;39.386;-3.210;2023-10-13T03:30:16;13.88;;;3.83;;
80987;SDS011;70452;39.386;-3.210;2023-10-13T03:32:48;10.82;;;3.83;;
80987;SDS011;70452;39.386;-3.210;2023-10-13T03:35:30;10.32;;;4.40;;
80987;SDS011;70452;39.386;-3.210;2023-10-13T03:38:09;9.80;;;3.85;;
80987;SDS011;70452;39.386;-3.210;2023-10-13T03:40:50;10.18;;;4.05;;
80987;SDS011;70452;39.386;-3.210;2023-10-13T03:43:45;8.73;;;4.00;;
80987;SDS011;70452;39.386;-3.210;2023-10-13T03:46:17;13.60;;;4.40;;
80987;SDS011;70452;39.386;-3.210;2023-10-13T03:48:56;10.68;;;4.82;;
80987;SDS011;70452;39.386;-3.210;2023-10-13T03:51:29;9.60;;;3.95;;
80987;SDS011;70452;39.386;-3.210;2023-10-13T03:59:41;13.00;;;4.35;;
80987;SDS011;70452;39.386;-3.210;2023-10-13T04:02:17;10.43;;;4.53;;
80987;SDS011;70452;39.386;-3.210;2023-10-13T04:04:50;9.63;;;4.43;;
80987;SDS011;70452;39.386;-3.210;2023-10-13T04:07:20;10.30;;;4.38;;
80987;SDS011;70452;39.386;-3.210;2023-10-13T04:10:20;10.90;;;5.05;;
80987;SDS011;70452;39.386;-3.210;2023-10-13T04:13:13;11.82;;;5.63;;
80987;SDS011;70452;39.386;-3.210;2023-10-13T04:16:00;12.75;;;4.78;;
80987;SDS011;70452;39.386;-3.210;2023-10-13T04:18:51;12.63;;;4.28;;
80987;SDS011;70452;39.386;-3.210;2023-10-13T04:21:26;10.50;;;4.70;;
80987;SDS011;70452;39.386;-3.210;2023-10-13T04:24:07;13.45;;;5.05;;
80987;SDS011;70452;39.386;-3.210;2023-10-13T04:26:53;9.90;;;4.38;;
80987;SDS011;70452;39.386;-3.210;2023-10-13T04:29:41;10.63;;;4.25;;
80987;SDS011;70452;39.386;-3.210;2023-10-13T04:32:22;10.85;;;4.28;;
80987;SDS011;70452;39.386;-3.210;2023-10-13T04:35:12;12.07;;;4.68;;
80987;SDS011;70452;39.386;-3.210;2023-10-13T04:37:47;11.02;;;4.60;;
80987;SDS011;70452;39.386;-3.210;2023-10-13T04:40:24;10.88;;;5.03;;
80987;SDS011;70452;39.386;-3.210;2023-10-13T04:46:24;10.07;;;4.60;;
80987;SDS011;70452;39.386;-3.210;2023-10-13T04:49:14;12.30;;;4.88;;
80987;SDS011;70452;39.386;-3.210;2023-10-13T04:52:06;13.75;;;4.65;;
80987;SDS011;70452;39.386;-3.210;2023-10-13T04:54:39;10.23;;;4.90;;
80987;SDS011;70452;39.386;-3.210;2023-10-13T04:57:22;11.27;;;5.43;;
80987;SDS011;70452;39.386;-3.210;2023-10-13T05:00:12;10.93;;;4.90;;
80987;SDS011;70452;39.386;-3.210;2023-10-13T05:02:46;9.30;;;4.65;;
80987;SDS011;70452;39.386;-3.210;2023-10-13T05:05:36;13.07;;;5.13;;
80987;SDS011;70452;39.386;-3.210;2023-10-13T05:08:20;11.05;;;4.90;;
80987;SDS011;70452;39.386;-3.210;2023-10-13T05:14:20;9.60;;;4.60;;
80987;SDS011;70452;39.386;-3.210;2023-10-13T05:17:13;10.43;;;4.47;;
80987;SDS011;70452;39.386;-3.210;2023-10-13T05:19:57;10.63;;;4.53;;
80987;SDS011;70452;39.386;-3.210;2023-10-13T05:22:50;10.57;;;4.35;;
80987;SDS011;70452;39.386;-3.210;2023-10-13T05:25:36;15.18;;;5.15;;
80987;SDS011;70452;39.386;-3.210;2023-10-13T05:28:29;11.63;;;4.85;;
80987;SDS011;70452;39.386;-3.210;2023-10-13T05:31:19;13.18;;;5.43;;
80987;SDS011;70452;39.386;-3.210;2023-10-13T05:34:07;11.10;;;5.13;;
80987;SDS011;70452;39.386;-3.210;2023-10-13T05:37:02;13.05;;;5.65;;
80987;SDS011;70452;39.386;-3.210;2023-10-13T05:39:53;10.02;;;4.65;;
80987;SDS011;70452;39.386;-3.210;2023-10-13T05:42:37;10.73;;;5.13;;
80987;SDS011;70452;39.386;-3.210;2023-10-13T05:45:26;10.25;;;4.72;;
80987;SDS011;70452;39.386;-3.210;2023-10-13T05:48:34;11.43;;;5.38;;
80987;SDS011;70452;39.386;-3.210;2023-10-13T05:51:17;12.93;;;5.93;;
80987;SDS011;70452;39.386;-3.210;2023-10-13T05:54:21;14.07;;;5.85;;
80987;SDS011;70452;39.386;-3.210;2023-10-13T05:57:06;10.88;;;5.47;;
80987;SDS011;70452;39.386;-3.210;2023-10-13T05:59:54;13.00;;;6.13;;
80987;SDS011;70452;39.386;-3.210;2023-10-13T06:02:40;10.88;;;5.47;;
80987;SDS011;70452;39.386;-3.210;2023-10-13T06:05:44;12.52;;;6.40;;
80987;SDS011;70452;39.386;-3.210;2023-10-13T06:08:54;13.32;;;5.80;;
80987;SDS011;70452;39.386;-3.210;2023-10-13T06:11:56;16.60;;;6.00;;
80987;SDS011;70452;39.386;-3.210;2023-10-13T06:14:47;11.15;;;5.60;;
80987;SDS011;70452;39.386;-3.210;2023-10-13T06:17:34;12.43;;;5.75;;
80987;SDS011;70452;39.386;-3.210;2023-10-13T06:20:21;12.18;;;5.78;;
80987;SDS011;70452;39.386;-3.210;2023-10-13T06:23:05;13.30;;;6.05;;
80987;SDS011;70452;39.386;-3.210;2023-10-13T06:25:58;14.18;;;5.60;;
80987;SDS011;70452;39.386;-3.210;2023-10-13T06:28:51;12.27;;;4.82;;
80987;SDS011;70452;39.386;-3.210;2023-10-13T06:31:27;13.18;;;5.57;;
80987;SDS011;70452;39.386;-3.210;2023-10-13T06:34:10;13.38;;;5.60;;
80987;SDS011;70452;39.386;-3.210;2023-10-13T06:36:44;11.43;;;5.15;;
80987;SDS011;70452;39.386;-3.210;2023-10-13T06:39:15;11.30;;;5.68;;
80987;SDS011;70452;39.386;-3.210;2023-10-13T06:42:02;11.70;;;5.00;;
80987;SDS011;70452;39.386;-3.210;2023-10-13T06:44:38;13.20;;;6.22;;
80987;SDS011;70452;39.386;-3.210;2023-10-13T06:47:20;11.13;;;5.53;;
80987;SDS011;70452;39.386;-3.210;2023-10-13T06:49:50;11.65;;;5.40;;
80987;SDS011;70452;39.386;-3.210;2023-10-13T06:52:20;12.15;;;6.07;;
80987;SDS011;70452;39.386;-3.210;2023-10-13T06:54:57;14.55;;;5.03;;
80987;SDS011;70452;39.386;-3.210;2023-10-13T07:00:02;10.77;;;5.03;;
80987;SDS011;70452;39.386;-3.210;2023-10-13T07:02:58;12.77;;;5.70;;
80987;SDS011;70452;39.386;-3.210;2023-10-13T07:05:48;10.30;;;5.55;;
80987;SDS011;70452;39.386;-3.210;2023-10-13T07:08:27;11.07;;;5.80;;
80987;SDS011;70452;39.386;-3.210;2023-10-13T07:11:08;12.07;;;4.97;;
80987;SDS011;70452;39.386;-3.210;2023-10-13T07:14:11;11.13;;;5.75;;
80987;SDS011;70452;39.386;-3.210;2023-10-13T07:19:58;10.52;;;5.05;;
80987;SDS011;70452;39.386;-3.210;2023-10-13T07:23:05;13.07;;;5.03;;
80987;SDS011;70452;39.386;-3.210;2023-10-13T07:25:34;10.75;;;5.30;;
80987;SDS011;70452;39.386;-3.210;2023-10-13T07:28:09;11.48;;;4.53;;
80987;SDS011;70452;39.386;-3.210;2023-10-13T07:30:51;12.18;;;4.88;;
80987;SDS011;70452;39.386;-3.210;2023-10-13T07:33:37;15.55;;;4.72;;
80987;SDS011;70452;39.386;-3.210;2023-10-13T07:36:10;11.30;;;4.65;;
80987;SDS011;70452;39.386;-3.210;2023-10-13T07:38:52;14.07;;;4.97;;
80987;SDS011;70452;39.386;-3.210;2023-10-13T07:41:37;15.90;;;4.65;;
80987;SDS011;70452;39.386;-3.210;2023-10-13T07:44:10;12.68;;;5.40;;
80987;SDS011;70452;39.386;-3.210;2023-10-13T07:46:45;11.52;;;4.28;;
80987;SDS011;70452;39.386;-3.210;2023-10-13T07:49:48;9.60;;;4.93;;
80987;SDS011;70452;39.386;-3.210;2023-10-13T07:54:53;13.13;;;4.47;;
80987;SDS011;70452;39.386;-3.210;2023-10-13T07:57:37;15.15;;;4.28;;
80987;SDS011;70452;39.386;-3.210;2023-10-13T08:00:27;11.15;;;3.80;;
80987;SDS011;70452;39.386;-3.210;2023-10-13T08:03:14;12.85;;;4.55;;
80987;SDS011;70452;39.386;-3.210;2023-10-13T08:05:43;11.23;;;3.75;;
80987;SDS011;70452;39.386;-3.210;2023-10-13T08:08:29;10.65;;;3.85;;
80987;SDS011;70452;39.386;-3.210;2023-10-13T08:13:59;10.48;;;3.55;;
80987;SDS011;70452;39.386;-3.210;2023-10-13T08:16:41;8.68;;;3.50;;
80987;SDS011;70452;39.386;-3.210;2023-10-13T08:19:15;9.20;;;3.75;;
80987;SDS011;70452;39.386;-3.210;2023-10-13T08:21:55;12.20;;;4.00;;
80987;SDS011;70452;39.386;-3.210;2023-10-13T08:24:47;8.45;;;2.72;;
80987;SDS011;70452;39.386;-3.210;2023-10-13T08:27:21;8.82;;;3.40;;
80987;SDS011;70452;39.386;-3.210;2023-10-13T08:30:11;12.63;;;3.97;;
80987;SDS011;70452;39.386;-3.210;2023-10-13T08:32:58;11.93;;;3.28;;
80987;SDS011;70452;39.386;-3.210;2023-10-13T08:35:44;9.52;;;3.40;;
80987;SDS011;70452;39.386;-3.210;2023-10-13T08:38:21;13.50;;;4.25;;
80987;SDS011;70452;39.386;-3.210;2023-10-13T08:41:00;9.13;;;3.13;;
80987;SDS011;70452;39.386;-3.210;2023-10-13T08:43:44;10.88;;;3.60;;
80987;SDS011;70452;39.386;-3.210;2023-10-13T08:46:21;12.35;;;3.08;;
80987;SDS011;70452;39.386;-3.210;2023-10-13T08:48:57;12.70;;;3.78;;
80987;SDS011;70452;39.386;-3.210;2023-10-13T08:51:58;12.13;;;3.30;;
80987;SDS011;70452;39.386;-3.210;2023-10-13T08:54:54;9.63;;;3.55;;
80987;SDS011;70452;39.386;-3.210;2023-10-13T08:57:43;11.32;;;5.00;;
80987;SDS011;70452;39.386;-3.210;2023-10-13T09:00:15;13.63;;;3.97;;
80987;SDS011;70452;39.386;-3.210;2023-10-13T09:02:58;16.05;;;6.20;;
80987;SDS011;70452;39.386;-3.210;2023-10-13T09:05:50;12.80;;;5.65;;
80987;SDS011;70452;39.386;-3.210;2023-10-13T09:08:29;17.13;;;5.97;;
80987;SDS011;70452;39.386;-3.210;2023-10-13T09:11:02;14.48;;;5.82;;
80987;SDS011;70452;39.386;-3.210;2023-10-13T09:13:45;15.70;;;5.07;;
80987;SDS011;70452;39.386;-3.210;2023-10-13T09:16:17;14.63;;;7.55;;
80987;SDS011;70452;39.386;-3.210;2023-10-13T09:21:37;11.50;;;4.93;;
80987;SDS011;70452;39.386;-3.210;2023-10-13T09:24:10;15.68;;;5.60;;
80987;SDS011;70452;39.386;-3.210;2023-10-13T09:26:58;12.43;;;3.25;;
80987;SDS011;70452;39.386;-3.210;2023-10-13T09:29:33;14.85;;;3.90;;
80987;SDS011;70452;39.386;-3.210;2023-10-13T09:32:08;11.18;;;3.67;;
80987;SDS011;70452;39.386;-3.210;2023-10-13T09:34:40;12.60;;;2.90;;
80987;SDS011;70452;39.386;-3.210;2023-10-13T09:37:10;12.25;;;3.90;;
80987;SDS011;70452;39.386;-3.210;2023-10-13T09:39:53;21.27;;;4.18;;
80987;SDS011;70452;39.386;-3.210;2023-10-13T09:42:30;14.77;;;4.88;;
80987;SDS011;70452;39.386;-3.210;2023-10-13T09:45:02;10.05;;;3.97;;
80987;SDS011;70452;39.386;-3.210;2023-10-13T09:47:37;24.83;;;9.10;;
80987;SDS011;70452;39.386;-3.210;2023-10-13T09:53:07;15.68;;;5.22;;
80987;SDS011;70452;39.386;-3.210;2023-10-13T09:55:44;18.20;;;4.10;;
80987;SDS011;70452;39.386;-3.210;2023-10-13T09:58:55;18.60;;;5.85;;
80987;SDS011;70452;39.386;-3.210;2023-10-13T10:01:48;14.00;;;4.85;;
80987;SDS011;70452;39.386;-3.210;2023-10-13T10:04:22;22.52;;;9.13;;
80987;SDS011;70452;39.386;-3.210;2023-10-13T10:10:11;11.35;;;3.00;;
80987;SDS011;70452;39.386;-3.210;2023-10-13T10:13:39;10.80;;;3.78;;
80987;SDS011;70452;39.386;-3.210;2023-10-13T10:15:59;11.98;;;3.67;;
80987;SDS011;70452;39.386;-3.210;2023-10-13T10:18:33;9.07;;;2.60;;
80987;SDS011;70452;39.386;-3.210;2023-10-13T10:21:08;11.10;;;3.10;;
80987;SDS011;70452;39.386;-3.210;2023-10-13T10:23:51;11.65;;;2.35;;
80987;SDS011;70452;39.386;-3.210;2023-10-13T10:26:22;12.75;;;2.58;;
80987;SDS011;70452;39.386;-3.210;2023-10-13T10:28:56;13.18;;;3.17;;
80987;SDS011;70452;39.386;-3.210;2023-10-13T10:31:35;11.07;;;3.33;;
80987;SDS011;70452;39.386;-3.210;2023-10-13T10:34:14;14.05;;;2.75;;
80987;SDS011;70452;39.386;-3.210;2023-10-13T10:36:53;13.18;;;2.83;;
80987;SDS011;70452;39.386;-3.210;2023-10-13T10:39:37;9.68;;;2.50;;
80987;SDS011;70452;39.386;-3.210;2023-10-13T10:42:15;10.55;;;2.72;;
80987;SDS011;70452;39.386;-3.210;2023-10-13T10:44:51;16.40;;;2.75;;
80987;SDS011;70452;39.386;-3.210;2023-10-13T10:47:36;8.00;;;2.33;;
80987;SDS011;70452;39.386;-3.210;2023-10-13T10:50:24;9.88;;;2.53;;
80987;SDS011;70452;39.386;-3.210;2023-10-13T10:53:20;17.60;;;3.00;;
80987;SDS011;70452;39.386;-3.210;2023-10-13T10:55:50;10.02;;;2.33;;
80987;SDS011;70452;39.386;-3.210;2023-10-13T10:58:48;13.30;;;3.15;;
80987;SDS011;70452;39.386;-3.210;2023-10-13T11:01:27;12.77;;;3.28;;
80987;SDS011;70452;39.386;-3.210;2023-10-13T11:04:04;14.02;;;3.40;;
80987;SDS011;70452;39.386;-3.210;2023-10-13T11:06:38;10.70;;;3.25;;
80987;SDS011;70452;39.386;-3.210;2023-10-13T11:09:27;11.38;;;2.85;;
80987;SDS011;70452;39.386;-3.210;2023-10-13T11:12:08;13.57;;;2.65;;
80987;SDS011;70452;39.386;-3.210;2023-10-13T11:15:04;11.73;;;2.03;;
80987;SDS011;70452;39.386;-3.210;2023-10-13T11:18:02;12.95;;;2.00;;
80987;SDS011;70452;39.386;-3.210;2023-10-13T11:20:41;8.98;;;1.60;;
80987;SDS011;70452;39.386;-3.210;2023-10-13T11:23:16;8.40;;;1.80;;
80987;SDS011;70452;39.386;-3.210;2023-10-13T11:25:41;12.93;;;2.80;;
80987;SDS011;70452;39.386;-3.210;2023-10-13T11:28:26;16.73;;;2.05;;
80987;SDS011;70452;39.386;-3.210;2023-10-13T11:30:59;12.05;;;1.80;;
80987;SDS011;70452;39.386;-3.210;2023-10-13T11:36:31;8.75;;;2.60;;
80987;SDS011;70452;39.386;-3.210;2023-10-13T11:39:06;12.05;;;1.75;;
80987;SDS011;70452;39.386;-3.210;2023-10-13T11:41:45;9.57;;;1.90;;
80987;SDS011;70452;39.386;-3.210;2023-10-13T11:44:20;7.28;;;1.73;;
80987;SDS011;70452;39.386;-3.210;2023-10-13T11:46:59;8.10;;;2.28;;
80987;SDS011;70452;39.386;-3.210;2023-10-13T11:50:04;9.35;;;1.75;;
80987;SDS011;70452;39.386;-3.210;2023-10-13T11:52:37;8.07;;;2.00;;
80987;SDS011;70452;39.386;-3.210;2023-10-13T11:55:09;9.18;;;1.90;;
80987;SDS011;70452;39.386;-3.210;2023-10-13T11:57:38;8.65;;;2.08;;
80987;SDS011;70452;39.386;-3.210;2023-10-13T12:00:10;10.45;;;1.85;;
80987;SDS011;70452;39.386;-3.210;2023-10-13T12:03:01;11.15;;;2.95;;
80987;SDS011;70452;39.386;-3.210;2023-10-13T12:05:45;14.20;;;3.20;;
80987;SDS011;70452;39.386;-3.210;2023-10-13T12:08:34;9.48;;;1.67;;
80987;SDS011;70452;39.386;-3.210;2023-10-13T12:11:19;11.02;;;2.10;;
80987;SDS011;70452;39.386;-3.210;2023-10-13T12:14:06;8.70;;;1.73;;
80987;SDS011;70452;39.386;-3.210;2023-10-13T12:17:07;5.95;;;1.73;;
80987;SDS011;70452;39.386;-3.210;2023-10-13T12:19:37;24.92;;;2.42;;
80987;SDS011;70452;39.386;-3.210;2023-10-13T12:22:16;6.25;;;1.90;;
80987;SDS011;70452;39.386;-3.210;2023-10-13T12:24:52;8.65;;;2.05;;
80987;SDS011;70452;39.386;-3.210;2023-10-13T12:27:24;9.25;;;2.25;;
80987;SDS011;70452;39.386;-3.210;2023-10-13T12:30:14;7.22;;;1.98;;
80987;SDS011;70452;39.386;-3.210;2023-10-13T12:32:49;11.82;;;1.92;;
80987;SDS011;70452;39.386;-3.210;2023-10-13T12:35:35;7.28;;;1.73;;
80987;SDS011;70452;39.386;-3.210;2023-10-13T12:38:20;7.05;;;2.03;;
80987;SDS011;70452;39.386;-3.210;2023-10-13T12:41:23;11.63;;;1.98;;
80987;SDS011;70452;39.386;-3.210;2023-10-13T12:44:12;7.35;;;2.08;;
80987;SDS011;70452;39.386;-3.210;2023-10-13T12:46:57;5.40;;;1.38;;
80987;SDS011;70452;39.386;-3.210;2023-10-13T12:49:46;9.10;;;1.98;;
80987;SDS011;70452;39.386;-3.210;2023-10-13T12:52:17;12.23;;;2.33;;
80987;SDS011;70452;39.386;-3.210;2023-10-13T12:55:01;9.80;;;2.50;;
80987;SDS011;70452;39.386;-3.210;2023-10-13T12:57:38;8.85;;;1.77;;
80987;SDS011;70452;39.386;-3.210;2023-10-13T13:00:09;10.73;;;1.85;;
80987;SDS011;70452;39.386;-3.210;2023-10-13T13:03:06;8.48;;;1.88;;
80987;SDS011;70452;39.386;-3.210;2023-10-13T13:05:46;9.57;;;2.15;;
80987;SDS011;70452;39.386;-3.210;2023-10-13T13:08:13;7.60;;;1.70;;
80987;SDS011;70452;39.386;-3.210;2023-10-13T13:10:47;10.13;;;1.98;;
80987;SDS011;70452;39.386;-3.210;2023-10-13T13:13:21;10.90;;;2.30;;
80987;SDS011;70452;39.386;-3.210;2023-10-13T13:15:58;10.77;;;1.92;;
80987;SDS011;70452;39.386;-3.210;2023-10-13T13:18:36;9.93;;;2.13;;
80987;SDS011;70452;39.386;-3.210;2023-10-13T13:21:10;9.77;;;2.08;;
80987;SDS011;70452;39.386;-3.210;2023-10-13T13:23:51;7.38;;;1.77;;
80987;SDS011;70452;39.386;-3.210;2023-10-13T13:26:39;7.00;;;1.65;;
80987;SDS011;70452;39.386;-3.210;2023-10-13T13:29:10;8.43;;;2.35;;
80987;SDS011;70452;39.386;-3.210;2023-10-13T13:31:38;8.32;;;1.95;;
80987;SDS011;70452;39.386;-3.210;2023-10-13T13:34:14;10.05;;;2.05;;
80987;SDS011;70452;39.386;-3.210;2023-10-13T13:36:46;6.65;;;1.75;;
80987;SDS011;70452;39.386;-3.210;2023-10-13T13:39:18;8.00;;;2.03;;
80987;SDS011;70452;39.386;-3.210;2023-10-13T13:41:56;7.45;;;1.75;;
80987;SDS011;70452;39.386;-3.210;2023-10-13T13:44:31;8.15;;;2.08;;
80987;SDS011;70452;39.386;-3.210;2023-10-13T13:47:04;6.63;;;1.65;;
80987;SDS011;70452;39.386;-3.210;2023-10-13T13:49:40;8.00;;;1.67;;
80987;SDS011;70452;39.386;-3.210;2023-10-13T13:52:21;11.93;;;2.13;;
80987;SDS011;70452;39.386;-3.210;2023-10-13T13:54:59;8.57;;;2.03;;
80987;SDS011;70452;39.386;-3.210;2023-10-13T13:57:32;8.70;;;2.63;;
80987;SDS011;70452;39.386;-3.210;2023-10-13T14:00:04;9.00;;;1.98;;
80987;SDS011;70452;39.386;-3.210;2023-10-13T14:02:42;9.02;;;2.47;;
80987;SDS011;70452;39.386;-3.210;2023-10-13T14:05:16;9.35;;;1.95;;
80987;SDS011;70452;39.386;-3.210;2023-10-13T14:07:51;7.85;;;1.98;;
80987;SDS011;70452;39.386;-3.210;2023-10-13T14:10:26;8.40;;;1.92;;
80987;SDS011;70452;39.386;-3.210;2023-10-13T14:13:21;8.55;;;2.47;;
80987;SDS011;70452;39.386;-3.210;2023-10-13T14:16:12;9.10;;;2.08;;
80987;SDS011;70452;39.386;-3.210;2023-10-13T14:19:05;8.40;;;2.75;;
80987;SDS011;70452;39.386;-3.210;2023-10-13T14:22:02;11.13;;;2.22;;
80987;SDS011;70452;39.386;-3.210;2023-10-13T14:24:35;13.82;;;2.15;;
80987;SDS011;70452;39.386;-3.210;2023-10-13T14:27:12;14.55;;;2.25;;
80987;SDS011;70452;39.386;-3.210;2023-10-13T14:29:43;8.45;;;2.22;;
80987;SDS011;70452;39.386;-3.210;2023-10-13T14:32:30;8.13;;;2.15;;
80987;SDS011;70452;39.386;-3.210;2023-10-13T14:35:07;9.80;;;1.88;;
80987;SDS011;70452;39.386;-3.210;2023-10-13T14:37:48;9.35;;;1.88;;
80987;SDS011;70452;39.386;-3.210;2023-10-13T14:40:24;8.30;;;1.88;;
80987;SDS011;70452;39.386;-3.210;2023-10-13T14:42:55;7.38;;;2.60;;
80987;SDS011;70452;39.386;-3.210;2023-10-13T14:45:29;8.98;;;2.28;;
80987;SDS011;70452;39.386;-3.210;2023-10-13T14:48:06;7.65;;;1.50;;
80987;SDS011;70452;39.386;-3.210;2023-10-13T14:50:39;8.02;;;1.50;;
80987;SDS011;70452;39.386;-3.210;2023-10-13T14:56:00;7.55;;;1.98;;
80987;SDS011;70452;39.386;-3.210;2023-10-13T14:58:37;9.93;;;1.95;;
80987;SDS011;70452;39.386;-3.210;2023-10-13T15:01:16;10.70;;;2.35;;
80987;SDS011;70452;39.386;-3.210;2023-10-13T15:06:33;7.93;;;1.70;;
80987;SDS011;70452;39.386;-3.210;2023-10-13T15:09:06;8.80;;;1.55;;
80987;SDS011;70452;39.386;-3.210;2023-10-13T15:11:38;8.07;;;2.17;;
80987;SDS011;70452;39.386;-3.210;2023-10-13T15:14:14;7.72;;;1.83;;
80987;SDS011;70452;39.386;-3.210;2023-10-13T15:16:45;9.75;;;1.70;;
80987;SDS011;70452;39.386;-3.210;2023-10-13T15:19:21;9.27;;;1.98;;
80987;SDS011;70452;39.386;-3.210;2023-10-13T15:22:09;6.13;;;1.55;;
80987;SDS011;70452;39.386;-3.210;2023-10-13T15:24:44;12.50;;;2.08;;
80987;SDS011;70452;39.386;-3.210;2023-10-13T15:27:25;7.85;;;2.28;;
80987;SDS011;70452;39.386;-3.210;2023-10-13T15:29:54;5.15;;;1.15;;
80987;SDS011;70452;39.386;-3.210;2023-10-13T15:32:32;5.95;;;1.55;;
80987;SDS011;70452;39.386;-3.210;2023-10-13T15:35:09;8.07;;;1.63;;
80987;SDS011;70452;39.386;-3.210;2023-10-13T15:37:41;7.32;;;1.83;;
80987;SDS011;70452;39.386;-3.210;2023-10-13T15:40:13;8.38;;;1.60;;
80987;SDS011;70452;39.386;-3.210;2023-10-13T15:42:43;6.97;;;1.42;;
80987;SDS011;70452;39.386;-3.210;2023-10-13T15:45:17;6.28;;;1.50;;
80987;SDS011;70452;39.386;-3.210;2023-10-13T15:48:08;7.82;;;1.17;;
80987;SDS011;70452;39.386;-3.210;2023-10-13T15:50:39;6.22;;;2.42;;
80987;SDS011;70452;39.386;-3.210;2023-10-13T15:53:08;7.55;;;1.42;;
80987;SDS011;70452;39.386;-3.210;2023-10-13T15:55:46;5.63;;;1.25;;
80987;SDS011;70452;39.386;-3.210;2023-10-13T15:58:19;8.80;;;1.85;;
80987;SDS011;70452;39.386;-3.210;2023-10-13T16:00:52;11.73;;;1.52;;
80987;SDS011;70452;39.386;-3.210;2023-10-13T16:03:42;7.50;;;1.98;;
80987;SDS011;70452;39.386;-3.210;2023-10-13T16:06:23;10.48;;;1.92;;
80987;SDS011;70452;39.386;-3.210;2023-10-13T16:09:03;9.13;;;1.60;;
80987;SDS011;70452;39.386;-3.210;2023-10-13T16:11:51;9.85;;;1.90;;
80987;SDS011;70452;39.386;-3.210;2023-10-13T16:14:26;10.48;;;2.00;;
80987;SDS011;70452;39.386;-3.210;2023-10-13T16:17:03;7.75;;;1.83;;
80987;SDS011;70452;39.386;-3.210;2023-10-13T16:19:35;9.23;;;1.88;;
80987;SDS011;70452;39.386;-3.210;2023-10-13T16:22:08;10.00;;;1.67;;
80987;SDS011;70452;39.386;-3.210;2023-10-13T16:24:40;12.07;;;1.85;;
80987;SDS011;70452;39.386;-3.210;2023-10-13T16:27:13;8.15;;;1.73;;